»·PEaware :: N74AG KSBA-KBUR

N74AG :: KSBA-KBUR

FLIGHT INFORMATION

Flight Status: Arrived
Operator: Privately registered:
United States
More flights under this callsign
Pilot: Jerry G. (20409)
Aircraft: CESSNA 172 SKYHAWK
(C172)
More flights by this aircraft type
Origin: KSBA Santa Barbara Mun
United States
Destination: KBUR Bob Hope-Burbank
United States
More flights between these airports :: More routes between these airports
Route: +
File this flight plan on PilotEdge
Remarks: CAT8
Altitude:
(Current/Filed)
5,500ft
Speed:
(Current/Filed)
0kts
Departed: 08-Feb-19 04:48 PM
Arrived: 08-Feb-19 05:34 PM
Distance/Time
Traveled:
75nm/0:46
Distance/Time
To Go:
Arrived

Flight Plot

Page will automatically refresh every two minutes.


Map Options




Map Legend


Flown Route
Filed Route
Departure Airport
Arrival Airport
Navaid (VOR, NDB)
Fix

Horizontal Profiles

Position Reports

Time Latitude Longitude Heading Altitude Ground
Speed
08-Feb-19 16:38 34.422664 -119.835593 340 17ft 0kts
08-Feb-19 16:39 34.422664 -119.835593 340 17ft 0kts
08-Feb-19 16:40 34.422664 -119.835593 340 17ft 0kts
08-Feb-19 16:41 34.422666 -119.835594 339 17ft 0kts
08-Feb-19 16:42 34.423215 -119.837342 356 17ft 6kts
08-Feb-19 16:43 34.425625 -119.838019 345 17ft 9kts
08-Feb-19 16:44 34.426736 -119.836787 88 17ft 9kts
08-Feb-19 16:45 34.427008 -119.834622 6 17ft 0kts
08-Feb-19 16:46 34.427008 -119.834622 6 17ft 0kts
08-Feb-19 16:47 34.427897 -119.835989 268 17ft 32kts
08-Feb-19 16:48 34.427344 -119.862698 265 717ft 89kts
08-Feb-19 16:49 34.422997 -119.895234 255 1282ft 119kts
08-Feb-19 16:50 34.417230 -119.934332 259 1284ft 116kts
08-Feb-19 16:51 34.411983 -119.972152 261 1242ft 118kts
08-Feb-19 16:52 34.402832 -120.006682 197 1588ft 99kts
08-Feb-19 16:52 34.392510 -119.983616 108 1915ft 122kts
08-Feb-19 16:54 34.391281 -119.943947 86 2924ft 103kts
08-Feb-19 16:55 34.388835 -119.910253 95 3691ft 98kts
08-Feb-19 16:55 34.397926 -119.883165 54 4047ft 111kts
08-Feb-19 16:56 34.415825 -119.852600 54 4547ft 111kts
08-Feb-19 16:58 34.421848 -119.811175 97 5124ft 110kts
08-Feb-19 16:59 34.416596 -119.774606 99 5625ft 110kts
08-Feb-19 16:59 34.412146 -119.744308 99 6040ft 109kts
08-Feb-19 17:00 34.406812 -119.707978 99 6541ft 109kts
08-Feb-19 17:01 34.401508 -119.671861 99 7040ft 108kts
08-Feb-19 17:02 34.395701 -119.632601 99 6990ft 137kts
08-Feb-19 17:03 34.388560 -119.584513 99 6294ft 147kts
08-Feb-19 17:04 34.381298 -119.535560 99 5593ft 147kts
08-Feb-19 17:05 34.374531 -119.490216 99 5394ft 123kts
08-Feb-19 17:06 34.368627 -119.450586 99 5396ft 118kts
08-Feb-19 17:07 34.362623 -119.409993 99 5397ft 128kts
08-Feb-19 17:08 34.356215 -119.367113 99 5397ft 129kts
08-Feb-19 17:09 34.349748 -119.324037 100 5405ft 129kts
08-Feb-19 17:10 34.343303 -119.281134 100 5405ft 130kts
08-Feb-19 17:11 34.336817 -119.238006 100 5405ft 130kts
08-Feb-19 17:12 34.330365 -119.194960 100 5405ft 130kts
08-Feb-19 17:13 34.323858 -119.151933 100 5405ft 130kts
08-Feb-19 17:14 34.317334 -119.108961 100 5405ft 130kts
08-Feb-19 17:15 34.310779 -119.065890 100 5405ft 130kts
08-Feb-19 17:16 34.304225 -119.022927 100 5405ft 130kts
08-Feb-19 17:17 34.297634 -118.979822 100 5405ft 130kts
08-Feb-19 17:18 34.291019 -118.936997 100 5422ft 129kts
08-Feb-19 17:19 34.284408 -118.894058 100 5422ft 130kts
08-Feb-19 17:20 34.277768 -118.850955 100 5422ft 130kts
08-Feb-19 17:21 34.271136 -118.808010 100 5422ft 130kts
08-Feb-19 17:22 34.264480 -118.765014 100 5422ft 130kts
08-Feb-19 17:23 34.257799 -118.721971 100 5422ft 130kts
08-Feb-19 17:24 34.251002 -118.678895 100 5000ft 127kts
08-Feb-19 17:25 34.244143 -118.637962 102 4496ft 123kts
08-Feb-19 17:26 34.236489 -118.598320 104 4137ft 113kts
08-Feb-19 17:27 34.228610 -118.559598 102 3654ft 121kts
08-Feb-19 17:28 34.219549 -118.519943 107 3155ft 123kts
08-Feb-19 17:29 34.208818 -118.480484 107 2653ft 123kts
08-Feb-19 17:30 34.199102 -118.441190 97 2170ft 115kts
08-Feb-19 17:31 34.197866 -118.403485 88 1605ft 101kts
08-Feb-19 17:32 34.198026 -118.378602 90 1060ft 63kts
08-Feb-19 17:33 34.197814 -118.362141 89 781ft 21kts
08-Feb-19 17:34 34.198526 -118.360386 351 781ft 6kts
08-Feb-19 17:35 34.199931 -118.358933 78 781ft 10kts

Navigation Log

Ident Type
Flight plan parsing failed, navigation log unavailable